Valdez, Valdez Airport (PAVD)

NameValdez Airport
CityValdez
CountryUnited States
ICAOPAVD
IATAVDZ
Altitude37 m
CoordinatesGoogle Map
Live Air TrafficLiveATC.net
METARPAVD 251656Z 00000KT 20SM FEW065 03/01 A2967
2020-04-25 16:56:00 Wind: North (0°) 0 m/s - Visibility: 32186.8 m - Temperature: 3 °C - Dew point: 1 °C - Humidity: 86.9% - Pressure: 1004.74 hPa

Sorry, no flights used the airport in this database.